Time;durP1;ratioP1;P1;durP2;ratioP2;P2;SDS_P1;SDS_P2;PMS_P1;PMS_P2;Temp;Humidity;BMP_temperature;BMP_pressure;BME280_temperature;BME280_humidity;BME280_pressure;Samples;Min_cycle;Max_cycle;Signal;HPM_P1;HPM_P2
2022/12/29 00:01:41;;;;;;;1.30;1.10;;;;;;;;;;12882760;23;20062;-87
2022/12/29 00:06:45;;;;;;;2.08;1.30;;;;;;;;;;12882949;22;20103;-88
2022/12/29 00:11:49;;;;;;;3.10;1.00;;;;;;;;;;12931438;23;20044;-84
2022/12/29 00:16:54;;;;;;;2.50;1.10;;;;;;;;;;12883497;22;20033;-87
2022/12/29 00:54:10;;;;;;;1.70;0.50;;;;;;;;;;12917799;23;20109;-88
2022/12/29 00:59:13;;;;;;;1.42;0.90;;;;;;;;;;12881562;23;20024;-87
2022/12/29 01:04:18;;;;;;;1.77;0.80;;;;;;;;;;12907597;23;20028;-88
2022/12/29 01:14:43;;;;;;;0.63;0.63;;;;;;;;;;12881480;23;20024;-87
2022/12/29 01:19:48;;;;;;;1.70;0.63;;;;;;;;;;12916053;22;20095;-85
2022/12/29 01:24:51;;;;;;;0.75;0.52;;;;;;;;;;12916024;23;20081;-85
2022/12/29 01:29:55;;;;;;;0.40;0.40;;;;;;;;;;12882151;23;20024;-87
2022/12/29 01:35:00;;;;;;;0.88;0.60;;;;;;;;;;12882633;23;20026;-88
2022/12/29 01:40:04;;;;;;;0.60;0.60;;;;;;;;;;12919028;22;20024;-87
2022/12/29 01:45:11;;;;;;;0.50;0.50;;;;;;;;;;12918916;23;20301;-86
2022/12/29 01:50:21;;;;;;;0.75;0.60;;;;;;;;;;12884509;23;20090;-87
2022/12/29 01:55:27;;;;;;;0.73;0.52;;;;;;;;;;12884837;23;20035;-85
2022/12/29 02:00:31;;;;;;;0.43;0.43;;;;;;;;;;12884889;23;20411;-86
2022/12/29 02:05:40;;;;;;;0.65;0.40;;;;;;;;;;12884429;23;20024;-85
2022/12/29 02:10:45;;;;;;;0.30;0.30;;;;;;;;;;12883408;23;20024;-87
2022/12/29 02:15:57;;;;;;;0.37;0.30;;;;;;;;;;12884362;23;20674;-86
2022/12/29 02:21:38;;;;;;;0.70;0.40;;;;;;;;;;12913602;23;20535;-85
2022/12/29 02:27:05;;;;;;;0.40;0.40;;;;;;;;;;12883265;22;20043;-87
2022/12/29 02:32:16;;;;;;;0.60;0.40;;;;;;;;;;12880723;23;20050;-87
2022/12/29 02:37:26;;;;;;;0.40;0.40;;;;;;;;;;12881553;22;20359;-86
2022/12/29 02:42:37;;;;;;;0.32;0.32;;;;;;;;;;12883386;23;20051;-87
2022/12/29 02:47:47;;;;;;;0.40;0.40;;;;;;;;;;12882753;22;20024;-85
2022/12/29 02:52:55;;;;;;;0.40;0.40;;;;;;;;;;12907767;23;20402;-87
2022/12/29 02:58:16;;;;;;;0.50;0.50;;;;;;;;;;12883096;22;20047;-87
2022/12/29 03:03:29;;;;;;;0.70;0.70;;;;;;;;;;12882325;23;20035;-88
2022/12/29 03:08:40;;;;;;;0.85;0.50;;;;;;;;;;12882034;22;20024;-85
2022/12/29 03:19:18;;;;;;;0.65;0.47;;;;;;;;;;12882689;23;20031;-86
2022/12/29 03:24:25;;;;;;;0.52;0.35;;;;;;;;;;12883467;23;20038;-87
2022/12/29 03:29:36;;;;;;;0.20;0.20;;;;;;;;;;12884060;23;20030;-87
2022/12/29 03:34:42;;;;;;;1.50;0.60;;;;;;;;;;12883195;23;20020;-87
2022/12/29 03:39:45;;;;;;;0.60;0.60;;;;;;;;;;12857591;23;20040;-87
2022/12/29 03:44:49;;;;;;;0.80;0.40;;;;;;;;;;12882865;23;20024;-88
2022/12/29 03:49:56;;;;;;;0.30;0.30;;;;;;;;;;12882519;23;20357;-87
2022/12/29 03:54:59;;;;;;;0.40;0.40;;;;;;;;;;12882824;23;20020;-88
2022/12/29 04:00:04;;;;;;;1.25;0.40;;;;;;;;;;12915527;22;20400;-85
2022/12/29 04:05:19;;;;;;;0.80;0.47;;;;;;;;;;12909671;23;20094;-86
2022/12/29 04:10:24;;;;;;;0.57;0.40;;;;;;;;;;12882273;23;20032;-87
2022/12/29 04:15:31;;;;;;;1.10;0.70;;;;;;;;;;12881674;23;20024;-88
2022/12/29 04:25:58;;;;;;;2.45;0.60;;;;;;;;;;12881539;22;20023;-87
2022/12/29 04:31:03;;;;;;;0.85;0.57;;;;;;;;;;12881955;23;20099;-85
2022/12/29 04:36:13;;;;;;;1.67;0.90;;;;;;;;;;12881053;22;20499;-85
2022/12/29 04:41:17;;;;;;;1.05;0.70;;;;;;;;;;12908549;23;20093;-86
2022/12/29 04:46:20;;;;;;;1.55;0.70;;;;;;;;;;12879529;22;20027;-88
2022/12/29 04:51:37;;;;;;;1.00;0.87;;;;;;;;;;12880693;23;20040;-86
2022/12/29 04:56:42;;;;;;;2.70;0.70;;;;;;;;;;12881229;22;20059;-88
2022/12/29 05:01:46;;;;;;;2.53;0.77;;;;;;;;;;12881920;23;20020;-86
2022/12/29 05:06:51;;;;;;;1.00;0.55;;;;;;;;;;12880839;22;20023;-88
2022/12/29 05:11:55;;;;;;;1.52;0.70;;;;;;;;;;12882774;23;20020;-88
2022/12/29 05:16:59;;;;;;;2.58;0.90;;;;;;;;;;12910566;22;20047;-88
2022/12/29 05:22:04;;;;;;;0.70;0.40;;;;;;;;;;12885817;23;20026;-88
2022/12/29 05:27:08;;;;;;;2.80;0.98;;;;;;;;;;12910547;22;20070;-86
2022/12/29 05:32:20;;;;;;;1.58;0.50;;;;;;;;;;12884742;23;20090;-87
2022/12/29 05:37:25;;;;;;;1.23;0.70;;;;;;;;;;12883712;22;20610;-88
2022/12/29 05:42:28;;;;;;;1.38;0.70;;;;;;;;;;12883590;23;20351;-86
2022/12/29 05:47:52;;;;;;;1.17;0.65;;;;;;;;;;12912356;22;20146;-88
2022/12/29 05:53:20;;;;;;;0.57;0.57;;;;;;;;;;12897359;23;20024;-88
2022/12/29 05:58:23;;;;;;;1.15;0.60;;;;;;;;;;12885821;22;20048;-87
2022/12/29 06:03:27;;;;;;;2.58;0.80;;;;;;;;;;12883488;23;20024;-86
2022/12/29 06:08:32;;;;;;;1.73;0.68;;;;;;;;;;12883921;22;20058;-85
2022/12/29 06:13:36;;;;;;;1.03;0.50;;;;;;;;;;12885125;23;20062;-86
2022/12/29 06:18:40;;;;;;;1.52;0.88;;;;;;;;;;12884176;22;20074;-87
2022/12/29 06:23:45;;;;;;;1.17;0.90;;;;;;;;;;12885277;23;20116;-87
2022/12/29 06:28:49;;;;;;;1.00;0.80;;;;;;;;;;12883790;22;20032;-87
2022/12/29 06:33:52;;;;;;;2.13;0.88;;;;;;;;;;12884405;23;20028;-88
2022/12/29 06:38:57;;;;;;;1.58;0.70;;;;;;;;;;12884013;23;20038;-88
2022/12/29 06:44:01;;;;;;;0.50;0.50;;;;;;;;;;12884703;23;20028;-87
2022/12/29 06:49:12;;;;;;;1.58;0.65;;;;;;;;;;12882949;23;20032;-87
2022/12/29 06:54:17;;;;;;;0.43;0.43;;;;;;;;;;12883799;23;20417;-87
2022/12/29 06:59:21;;;;;;;0.52;0.47;;;;;;;;;;12909277;22;20024;-86
2022/12/29 07:04:24;;;;;;;0.68;0.38;;;;;;;;;;12882945;23;20035;-86
2022/12/29 07:09:29;;;;;;;0.35;0.35;;;;;;;;;;12907152;22;20028;-88
2022/12/29 07:14:33;;;;;;;0.60;0.60;;;;;;;;;;12883234;23;20107;-84
2022/12/29 07:19:40;;;;;;;0.70;0.70;;;;;;;;;;12882133;23;20028;-87
2022/12/29 07:24:45;;;;;;;1.52;0.80;;;;;;;;;;12881787;23;20115;-87
2022/12/29 07:29:48;;;;;;;0.65;0.60;;;;;;;;;;12882317;23;20043;-87
2022/12/29 07:34:52;;;;;;;1.35;0.70;;;;;;;;;;12882196;23;20020;-87
2022/12/29 07:39:56;;;;;;;1.92;0.68;;;;;;;;;;12916613;22;20060;-87
2022/12/29 07:45:00;;;;;;;2.08;0.60;;;;;;;;;;12882603;23;20481;-87
2022/12/29 07:50:09;;;;;;;1.50;0.70;;;;;;;;;;12883491;23;20044;-86
2022/12/29 07:55:14;;;;;;;0.80;0.73;;;;;;;;;;12908546;23;20046;-85
2022/12/29 08:00:18;;;;;;;1.15;0.68;;;;;;;;;;12912074;22;20078;-88
2022/12/29 08:05:22;;;;;;;1.13;0.68;;;;;;;;;;12910305;23;20031;-88
2022/12/29 08:10:27;;;;;;;2.17;0.95;;;;;;;;;;12881666;23;20495;-88
2022/12/29 08:15:31;;;;;;;1.30;0.70;;;;;;;;;;12881757;23;20024;-86
2022/12/29 08:23:33;;;;;;;2.05;0.70;;;;;;;;;;10535357;27;20364;-82
2022/12/29 08:28:37;;;;;;;1.10;0.90;;;;;;;;;;10465798;28;20037;-86
2022/12/29 08:33:40;;;;;;;0.40;0.40;;;;;;;;;;10459708;28;20041;-85
2022/12/29 08:38:45;;;;;;;0.50;0.50;;;;;;;;;;10481215;28;20484;-82
2022/12/29 08:43:49;;;;;;;0.38;0.38;;;;;;;;;;10527393;28;20071;-80
2022/12/29 08:48:53;;;;;;;0.63;0.55;;;;;;;;;;10529908;28;20680;-83
2022/12/29 08:53:59;;;;;;;0.85;0.30;;;;;;;;;;10587700;22;20117;-84
2022/12/29 08:59:02;;;;;;;1.23;0.45;;;;;;;;;;10370276;28;20516;-84
2022/12/29 09:04:07;;;;;;;0.20;0.20;;;;;;;;;;10380174;28;20045;-89
2022/12/29 09:09:20;;;;;;;1.10;0.50;;;;;;;;;;10371753;28;20044;-86
2022/12/29 09:14:23;;;;;;;0.38;0.38;;;;;;;;;;10382293;28;20045;-84
2022/12/29 09:19:27;;;;;;;1.65;0.40;;;;;;;;;;10372600;28;20044;-85
2022/12/29 09:24:32;;;;;;;0.30;0.30;;;;;;;;;;10366958;28;20052;-84
2022/12/29 09:29:35;;;;;;;1.10;0.30;;;;;;;;;;10369323;28;20042;-83
2022/12/29 09:34:39;;;;;;;0.40;0.40;;;;;;;;;;10331164;28;20042;-83
2022/12/29 09:39:43;;;;;;;1.60;0.40;;;;;;;;;;10346455;28;20050;-88
2022/12/29 09:44:57;;;;;;;1.05;0.60;;;;;;;;;;10340859;28;20096;-84
2022/12/29 09:50:05;;;;;;;1.85;0.70;;;;;;;;;;10344451;28;20038;-83
2022/12/29 09:55:15;;;;;;;0.88;0.50;;;;;;;;;;10344980;28;20444;-83
2022/12/29 10:00:21;;;;;;;0.90;0.50;;;;;;;;;;10342311;28;20042;-90
2022/12/29 10:05:36;;;;;;;29.67;18.40;;;;;;;;;;10340588;28;20133;-84
2022/12/29 10:10:47;;;;;;;8.18;5.22;;;;;;;;;;10337467;28;20444;-84
2022/12/29 10:16:02;;;;;;;4.85;1.42;;;;;;;;;;10340940;28;20117;-86
2022/12/29 10:21:15;;;;;;;1.15;0.75;;;;;;;;;;10355943;28;20197;-87
2022/12/29 10:26:23;;;;;;;1.77;0.60;;;;;;;;;;10348964;28;20061;-86
2022/12/29 10:31:33;;;;;;;1.85;0.85;;;;;;;;;;10333775;28;20046;-84
2022/12/29 10:36:41;;;;;;;1.58;0.60;;;;;;;;;;10334739;28;20041;-85
2022/12/29 10:41:54;;;;;;;2.50;0.90;;;;;;;;;;10346532;28;20540;-85
2022/12/29 10:47:01;;;;;;;1.40;0.63;;;;;;;;;;10343728;28;20053;-83
2022/12/29 10:52:06;;;;;;;2.05;0.63;;;;;;;;;;10333894;28;20148;-86
2022/12/29 10:57:25;;;;;;;1.35;0.40;;;;;;;;;;10345309;28;20104;-84
2022/12/29 11:02:46;;;;;;;2.30;0.68;;;;;;;;;;10322883;28;20115;-87
2022/12/29 11:07:51;;;;;;;2.92;0.88;;;;;;;;;;10339466;28;20052;-87
2022/12/29 11:13:02;;;;;;;0.50;0.47;;;;;;;;;;10332645;28;21550;-88
2022/12/29 11:18:06;;;;;;;1.58;0.55;;;;;;;;;;10340115;28;20081;-87
2022/12/29 11:23:29;;;;;;;2.03;0.60;;;;;;;;;;10337427;28;20125;-86
2022/12/29 11:28:34;;;;;;;3.15;1.10;;;;;;;;;;10343044;28;20694;-84
2022/12/29 11:33:39;;;;;;;1.17;0.57;;;;;;;;;;10320005;28;20125;-84
2022/12/29 11:38:47;;;;;;;3.90;0.80;;;;;;;;;;10347843;28;20049;-86
2022/12/29 11:43:53;;;;;;;4.18;0.90;;;;;;;;;;10348698;28;20046;-89
2022/12/29 11:48:59;;;;;;;5.43;1.35;;;;;;;;;;10357117;28;20041;-92
2022/12/29 11:54:04;;;;;;;3.93;1.00;;;;;;;;;;10341856;28;20133;-87
2022/12/29 11:59:41;;;;;;;2.42;0.85;;;;;;;;;;10358549;28;20390;-87
2022/12/29 12:04:44;;;;;;;4.03;0.95;;;;;;;;;;10371190;28;20513;-84
2022/12/29 12:09:54;;;;;;;2.40;0.77;;;;;;;;;;10333287;28;20050;-84
2022/12/29 12:15:02;;;;;;;1.88;0.85;;;;;;;;;;10349838;28;20046;-87
2022/12/29 12:20:22;;;;;;;1.75;0.70;;;;;;;;;;10333804;28;20831;-84
2022/12/29 12:25:31;;;;;;;3.28;0.95;;;;;;;;;;10348501;28;20056;-84
2022/12/29 12:30:41;;;;;;;3.35;1.42;;;;;;;;;;10331908;28;20683;-84
2022/12/29 12:35:52;;;;;;;3.40;1.20;;;;;;;;;;10331787;28;20042;-84
2022/12/29 12:41:07;;;;;;;3.13;1.15;;;;;;;;;;10332839;28;20050;-86
2022/12/29 12:46:44;;;;;;;1.98;1.00;;;;;;;;;;10329681;28;20042;-85
2022/12/29 12:51:54;;;;;;;1.60;0.43;;;;;;;;;;10346369;28;20809;-85
2022/12/29 12:57:12;;;;;;;2.08;0.68;;;;;;;;;;10344854;28;20119;-84
2022/12/29 13:02:29;;;;;;;1.20;0.60;;;;;;;;;;10325111;28;20050;-88
2022/12/29 13:07:44;;;;;;;1.65;0.70;;;;;;;;;;10347484;28;20072;-86
2022/12/29 13:12:56;;;;;;;4.00;0.88;;;;;;;;;;10350359;28;20491;-91
2022/12/29 13:18:06;;;;;;;1.48;0.75;;;;;;;;;;10351846;28;20057;-87
2022/12/29 13:23:20;;;;;;;4.68;1.20;;;;;;;;;;10364280;28;20585;-92
2022/12/29 13:28:30;;;;;;;1.70;0.80;;;;;;;;;;10334060;28;20710;-85
2022/12/29 13:33:43;;;;;;;3.33;0.77;;;;;;;;;;10341399;28;20038;-85
2022/12/29 13:38:49;;;;;;;2.58;0.80;;;;;;;;;;10331002;28;20046;-84
2022/12/29 13:43:54;;;;;;;2.58;0.73;;;;;;;;;;10332518;28;20042;-84
2022/12/29 13:49:02;;;;;;;3.58;0.90;;;;;;;;;;10355872;28;20235;-92
2022/12/29 13:54:15;;;;;;;3.40;0.82;;;;;;;;;;10363352;28;20129;-87
2022/12/29 13:59:25;;;;;;;2.45;0.80;;;;;;;;;;10367536;28;20045;-86
2022/12/29 14:04:33;;;;;;;3.03;0.93;;;;;;;;;;10369769;28;20069;-88
2022/12/29 14:09:44;;;;;;;2.20;0.80;;;;;;;;;;10366790;28;20092;-84
2022/12/29 14:14:47;;;;;;;2.80;1.00;;;;;;;;;;10361289;28;20411;-84
2022/12/29 14:19:55;;;;;;;2.83;0.95;;;;;;;;;;10350861;28;20054;-84
2022/12/29 14:24:59;;;;;;;2.17;0.60;;;;;;;;;;10357370;28;20053;-84
2022/12/29 14:30:02;;;;;;;1.70;0.57;;;;;;;;;;10356534;28;20054;-83
2022/12/29 14:35:41;;;;;;;2.88;0.90;;;;;;;;;;10354779;28;20042;-84
2022/12/29 14:40:46;;;;;;;3.65;0.75;;;;;;;;;;10360249;28;20072;-84
2022/12/29 14:45:56;;;;;;;2.08;0.90;;;;;;;;;;10334455;28;20502;-86
2022/12/29 14:51:01;;;;;;;2.03;0.88;;;;;;;;;;10369670;28;20046;-89
2022/12/29 14:56:05;;;;;;;2.67;0.97;;;;;;;;;;10367334;28;20768;-90
2022/12/29 15:01:23;;;;;;;5.53;2.28;;;;;;;;;;10368993;28;20144;-85
2022/12/29 15:06:30;;;;;;;4.00;1.60;;;;;;;;;;10355673;28;20050;-87
2022/12/29 15:11:48;;;;;;;2.25;1.10;;;;;;;;;;10367013;28;20129;-86
2022/12/29 15:16:51;;;;;;;3.35;1.27;;;;;;;;;;10356316;28;20080;-85
2022/12/29 15:21:57;;;;;;;5.35;0.90;;;;;;;;;;10344313;28;20049;-83
2022/12/29 15:27:05;;;;;;;4.33;1.33;;;;;;;;;;10325154;28;20073;-83
2022/12/29 15:32:19;;;;;;;2.95;0.90;;;;;;;;;;10325566;28;20054;-83
2022/12/29 15:37:26;;;;;;;4.25;1.10;;;;;;;;;;10329807;28;20567;-84
2022/12/29 15:42:51;;;;;;;12.25;5.97;;;;;;;;;;10336350;28;20699;-84
2022/12/29 15:47:59;;;;;;;3.92;1.70;;;;;;;;;;10327931;28;20050;-84
2022/12/29 15:53:10;;;;;;;3.25;1.10;;;;;;;;;;10350333;28;20034;-84
2022/12/29 15:58:21;;;;;;;2.35;0.88;;;;;;;;;;10328725;28;20041;-83
2022/12/29 16:03:28;;;;;;;2.78;0.93;;;;;;;;;;10333809;28;20092;-83
2022/12/29 16:08:39;;;;;;;3.83;1.05;;;;;;;;;;10327706;28;20476;-83
2022/12/29 16:13:43;;;;;;;4.53;1.40;;;;;;;;;;10333594;28;20045;-84
2022/12/29 16:18:47;;;;;;;5.47;1.45;;;;;;;;;;10333843;28;20042;-83
2022/12/29 16:23:56;;;;;;;3.22;1.10;;;;;;;;;;10333497;28;20049;-84
2022/12/29 16:29:02;;;;;;;5.05;1.52;;;;;;;;;;10325759;28;20189;-83
2022/12/29 16:34:24;;;;;;;4.53;1.23;;;;;;;;;;10332605;28;20802;-84
2022/12/29 16:39:39;;;;;;;3.08;1.33;;;;;;;;;;10325535;28;20038;-83
2022/12/29 16:44:43;;;;;;;3.55;1.23;;;;;;;;;;10336780;28;20517;-84
2022/12/29 16:49:51;;;;;;;5.10;1.80;;;;;;;;;;10315929;28;20046;-84
2022/12/29 16:55:00;;;;;;;4.18;1.48;;;;;;;;;;10323198;28;20863;-83
2022/12/29 17:00:07;;;;;;;4.20;1.40;;;;;;;;;;10329233;28;20049;-83
2022/12/29 17:05:14;;;;;;;8.95;3.15;;;;;;;;;;10319627;28;20053;-84
2022/12/29 17:10:19;;;;;;;4.75;1.40;;;;;;;;;;10315550;28;20501;-86
2022/12/29 17:15:28;;;;;;;5.97;2.30;;;;;;;;;;10330028;28;20041;-87
2022/12/29 17:20:32;;;;;;;3.40;1.13;;;;;;;;;;10348832;28;20054;-86
2022/12/29 17:25:38;;;;;;;4.70;1.30;;;;;;;;;;10346648;28;20672;-86
2022/12/29 17:30:42;;;;;;;4.18;0.90;;;;;;;;;;10351043;28;20060;-86
2022/12/29 17:35:47;;;;;;;1.98;1.25;;;;;;;;;;10348885;28;20508;-86
2022/12/29 17:40:55;;;;;;;4.15;1.20;;;;;;;;;;10338635;28;20819;-85
2022/12/29 17:45:59;;;;;;;3.15;1.23;;;;;;;;;;10328727;28;20073;-84
2022/12/29 17:51:03;;;;;;;5.15;1.00;;;;;;;;;;10329557;28;20046;-84
2022/12/29 17:56:09;;;;;;;2.33;1.17;;;;;;;;;;10329760;28;20052;-84
2022/12/29 18:01:20;;;;;;;3.30;1.08;;;;;;;;;;10342318;28;20660;-84
2022/12/29 18:06:24;;;;;;;1.80;0.90;;;;;;;;;;10334708;28;20046;-84
2022/12/29 18:11:30;;;;;;;2.85;1.35;;;;;;;;;;10355941;28;20153;-83
2022/12/29 18:16:34;;;;;;;5.32;1.17;;;;;;;;;;10336055;28;20309;-84
2022/12/29 18:21:38;;;;;;;2.35;0.93;;;;;;;;;;10347206;28;20125;-85
2022/12/29 18:26:43;;;;;;;2.83;0.77;;;;;;;;;;10333569;28;20129;-84
2022/12/29 18:31:47;;;;;;;1.33;0.80;;;;;;;;;;10345666;28;20060;-87
2022/12/29 18:36:51;;;;;;;2.42;0.90;;;;;;;;;;10347160;28;20559;-87
2022/12/29 18:41:56;;;;;;;2.25;0.60;;;;;;;;;;10350250;28;20049;-89
2022/12/29 18:47:00;;;;;;;2.75;1.30;;;;;;;;;;10341750;28;20067;-86
2022/12/29 18:52:04;;;;;;;2.95;1.02;;;;;;;;;;10370598;28;20046;-86
2022/12/29 18:57:10;;;;;;;3.38;1.10;;;;;;;;;;10342369;28;20045;-89
2022/12/29 19:02:17;;;;;;;3.45;1.33;;;;;;;;;;10330297;28;20077;-86
2022/12/29 19:07:20;;;;;;;2.67;1.00;;;;;;;;;;10330838;28;20046;-88
2022/12/29 19:12:25;;;;;;;4.95;1.25;;;;;;;;;;10358045;28;20336;-84
2022/12/29 19:17:30;;;;;;;;;;;;;;;;;;10321729;28;20735;-85
2022/12/29 19:22:34;;;;;;;4.75;1.33;;;;;;;;;;10327753;28;20008;-86
2022/12/29 19:27:38;;;;;;;5.57;2.30;;;;;;;;;;10321738;28;20525;-86
2022/12/29 19:32:42;;;;;;;3.95;1.70;;;;;;;;;;10334691;28;20058;-89
2022/12/29 19:37:46;;;;;;;4.60;1.33;;;;;;;;;;10324498;28;20050;-85
2022/12/29 19:42:51;;;;;;;4.72;1.55;;;;;;;;;;10335662;28;20081;-84
2022/12/29 19:47:55;;;;;;;10.10;2.80;;;;;;;;;;10332623;28;20046;-84
2022/12/29 19:52:58;;;;;;;8.35;2.30;;;;;;;;;;10337388;28;20100;-85
2022/12/29 19:58:08;;;;;;;9.73;2.33;;;;;;;;;;10329969;28;20059;-84
2022/12/29 20:03:12;;;;;;;10.30;4.25;;;;;;;;;;10336622;28;20478;-85
2022/12/29 20:08:15;;;;;;;10.82;3.60;;;;;;;;;;10342734;28;20148;-86
2022/12/29 20:13:20;;;;;;;10.35;3.33;;;;;;;;;;10342603;28;20050;-84
2022/12/29 20:18:24;;;;;;;11.70;3.67;;;;;;;;;;10331430;28;20046;-85
2022/12/29 20:23:31;;;;;;;11.88;3.47;;;;;;;;;;10336373;28;20042;-84
2022/12/29 20:28:36;;;;;;;10.95;3.25;;;;;;;;;;10334461;28;20066;-86
2022/12/29 20:33:40;;;;;;;11.15;4.00;;;;;;;;;;10344129;28;20045;-86
2022/12/29 20:38:44;;;;;;;14.30;4.95;;;;;;;;;;10336203;28;20046;-86
2022/12/29 20:43:49;;;;;;;9.23;3.47;;;;;;;;;;10342831;28;20061;-86
2022/12/29 20:48:53;;;;;;;10.93;2.80;;;;;;;;;;10333588;28;20128;-87
2022/12/29 20:53:57;;;;;;;11.75;2.88;;;;;;;;;;10343100;28;20756;-88
2022/12/29 20:59:02;;;;;;;8.52;2.15;;;;;;;;;;10318585;28;20161;-83
2022/12/29 21:04:26;;;;;;;16.83;5.40;;;;;;;;;;10326546;28;20049;-86
2022/12/29 21:09:29;;;;;;;6.13;2.45;;;;;;;;;;10337146;28;20049;-86
2022/12/29 21:14:34;;;;;;;9.13;2.63;;;;;;;;;;10347784;28;20041;-88
2022/12/29 21:19:38;;;;;;;9.40;2.13;;;;;;;;;;10328030;28;20047;-85
2022/12/29 21:24:41;;;;;;;10.52;2.25;;;;;;;;;;10357301;28;20560;-86
2022/12/29 21:29:46;;;;;;;9.57;2.70;;;;;;;;;;10374538;28;20128;-86
2022/12/29 21:34:50;;;;;;;8.82;2.08;;;;;;;;;;10405572;28;20281;-88
2022/12/29 21:39:53;;;;;;;8.82;2.15;;;;;;;;;;10383314;28;20045;-87
2022/12/29 21:50:22;;;;;;;7.73;2.67;;;;;;;;;;10389469;28;20041;-86
2022/12/29 21:55:26;;;;;;;7.25;2.67;;;;;;;;;;10386776;28;20401;-84
2022/12/29 22:16:38;;;;;;;4.15;1.77;;;;;;;;;;10370277;28;20466;-85
2022/12/29 22:21:42;;;;;;;12.52;3.40;;;;;;;;;;10380261;28;20052;-85
2022/12/29 22:26:45;;;;;;;9.93;2.83;;;;;;;;;;10375824;28;20406;-85
2022/12/29 22:31:50;;;;;;;7.85;2.58;;;;;;;;;;10379343;28;20049;-85
2022/12/29 22:36:54;;;;;;;8.68;2.55;;;;;;;;;;10378854;28;20041;-86
2022/12/29 22:41:57;;;;;;;9.90;2.63;;;;;;;;;;10390780;28;20054;-88
2022/12/29 22:47:02;;;;;;;8.75;2.70;;;;;;;;;;10388291;28;20045;-88
2022/12/29 22:52:06;;;;;;;7.20;2.22;;;;;;;;;;10382178;28;20136;-86
2022/12/29 22:57:10;;;;;;;8.15;2.13;;;;;;;;;;10385563;28;20045;-87
2022/12/29 23:02:14;;;;;;;12.13;2.40;;;;;;;;;;10383522;28;20045;-86
2022/12/29 23:07:18;;;;;;;9.75;2.22;;;;;;;;;;10381553;28;20045;-84
2022/12/29 23:12:21;;;;;;;9.23;2.10;;;;;;;;;;10377919;28;20436;-85
2022/12/29 23:17:26;;;;;;;10.82;2.60;;;;;;;;;;10372266;28;20041;-85
2022/12/29 23:22:30;;;;;;;6.25;1.40;;;;;;;;;;10374852;28;20057;-86
2022/12/29 23:27:33;;;;;;;5.95;1.58;;;;;;;;;;10376924;28;20038;-85
2022/12/29 23:32:38;;;;;;;6.93;1.35;;;;;;;;;;10377361;28;20511;-85
2022/12/29 23:37:42;;;;;;;2.50;1.00;;;;;;;;;;10378033;28;20227;-86
2022/12/29 23:42:45;;;;;;;3.33;1.08;;;;;;;;;;10372911;28;20041;-87
2022/12/29 23:47:52;;;;;;;4.77;1.07;;;;;;;;;;10395980;28;20042;-87
2022/12/29 23:52:56;;;;;;;7.68;1.48;;;;;;;;;;10411651;28;20076;-87
2022/12/29 23:57:59;;;;;;;5.28;1.35;;;;;;;;;;10391560;28;20056;-88
